sensor_id;sensor_type;location;lat;lon;timestamp;temperature;humidity
6206;DHT22;3136;48.788;9.772;2023-05-27T00:01:47;13.70;99.90
6206;DHT22;3136;48.788;9.772;2023-05-27T00:04:13;13.70;99.90
6206;DHT22;3136;48.788;9.772;2023-05-27T00:06:39;13.60;99.90
6206;DHT22;3136;48.788;9.772;2023-05-27T00:09:05;13.60;99.90
6206;DHT22;3136;48.788;9.772;2023-05-27T00:11:30;13.50;99.90
6206;DHT22;3136;48.788;9.772;2023-05-27T00:13:56;13.50;99.90
6206;DHT22;3136;48.788;9.772;2023-05-27T00:16:21;13.40;99.90
6206;DHT22;3136;48.788;9.772;2023-05-27T00:18:48;13.40;99.90
6206;DHT22;3136;48.788;9.772;2023-05-27T00:21:14;13.30;99.90
6206;DHT22;3136;48.788;9.772;2023-05-27T00:23:44;13.30;99.90
6206;DHT22;3136;48.788;9.772;2023-05-27T00:26:09;13.20;99.90
6206;DHT22;3136;48.788;9.772;2023-05-27T00:28:35;13.20;99.90
6206;DHT22;3136;48.788;9.772;2023-05-27T00:31:01;13.20;99.90
6206;DHT22;3136;48.788;9.772;2023-05-27T00:33:27;13.20;99.90
6206;DHT22;3136;48.788;9.772;2023-05-27T00:35:52;13.20;99.90
6206;DHT22;3136;48.788;9.772;2023-05-27T00:38:18;13.20;99.90
6206;DHT22;3136;48.788;9.772;2023-05-27T00:40:44;13.10;99.90
6206;DHT22;3136;48.788;9.772;2023-05-27T00:43:09;13.10;99.90
6206;DHT22;3136;48.788;9.772;2023-05-27T00:45:35;13.10;99.90
6206;DHT22;3136;48.788;9.772;2023-05-27T00:48:02;13.10;99.90
6206;DHT22;3136;48.788;9.772;2023-05-27T00:50:28;13.10;99.90
6206;DHT22;3136;48.788;9.772;2023-05-27T00:52:54;13.10;99.90
6206;DHT22;3136;48.788;9.772;2023-05-27T00:55:23;13.10;99.90
6206;DHT22;3136;48.788;9.772;2023-05-27T00:57:49;13.20;99.90
6206;DHT22;3136;48.788;9.772;2023-05-27T01:00:15;13.00;99.90
6206;DHT22;3136;48.788;9.772;2023-05-27T01:02:41;13.00;99.90
6206;DHT22;3136;48.788;9.772;2023-05-27T01:05:09;13.00;99.90
6206;DHT22;3136;48.788;9.772;2023-05-27T01:10:28;12.90;99.90
6206;DHT22;3136;48.788;9.772;2023-05-27T01:13:13;12.90;99.90
6206;DHT22;3136;48.788;9.772;2023-05-27T01:15:41;12.90;99.90
6206;DHT22;3136;48.788;9.772;2023-05-27T01:18:07;12.90;99.90
6206;DHT22;3136;48.788;9.772;2023-05-27T01:20:34;12.90;99.90
6206;DHT22;3136;48.788;9.772;2023-05-27T01:23:07;12.90;99.90
6206;DHT22;3136;48.788;9.772;2023-05-27T01:25:33;13.50;99.90
6206;DHT22;3136;48.788;9.772;2023-05-27T01:27:58;12.80;99.90
6206;DHT22;3136;48.788;9.772;2023-05-27T01:30:24;12.80;99.90
6206;DHT22;3136;48.788;9.772;2023-05-27T01:33:11;13.80;99.90
6206;DHT22;3136;48.788;9.772;2023-05-27T01:35:44;12.70;99.90
6206;DHT22;3136;48.788;9.772;2023-05-27T01:38:14;12.70;99.90
6206;DHT22;3136;48.788;9.772;2023-05-27T01:40:40;12.70;99.90
6206;DHT22;3136;48.788;9.772;2023-05-27T01:43:07;12.70;99.90
6206;DHT22;3136;48.788;9.772;2023-05-27T01:45:34;12.70;99.90
6206;DHT22;3136;48.788;9.772;2023-05-27T01:48:00;12.80;99.90
6206;DHT22;3136;48.788;9.772;2023-05-27T01:50:25;12.90;99.90
6206;DHT22;3136;48.788;9.772;2023-05-27T01:52:51;12.80;99.90
6206;DHT22;3136;48.788;9.772;2023-05-27T01:55:17;12.70;99.90
6206;DHT22;3136;48.788;9.772;2023-05-27T01:57:43;12.80;99.90
6206;DHT22;3136;48.788;9.772;2023-05-27T02:00:09;13.70;99.90
6206;DHT22;3136;48.788;9.772;2023-05-27T02:02:35;12.70;99.90
6206;DHT22;3136;48.788;9.772;2023-05-27T02:05:00;12.70;99.90
6206;DHT22;3136;48.788;9.772;2023-05-27T02:07:26;12.70;99.90
6206;DHT22;3136;48.788;9.772;2023-05-27T02:09:53;12.70;99.90
6206;DHT22;3136;48.788;9.772;2023-05-27T02:12:19;12.60;99.90
6206;DHT22;3136;48.788;9.772;2023-05-27T02:14:44;12.60;99.90
6206;DHT22;3136;48.788;9.772;2023-05-27T02:17:10;12.50;99.90
6206;DHT22;3136;48.788;9.772;2023-05-27T02:19:36;12.50;99.90
6206;DHT22;3136;48.788;9.772;2023-05-27T02:22:02;12.40;99.90
6206;DHT22;3136;48.788;9.772;2023-05-27T02:24:28;12.40;99.90
6206;DHT22;3136;48.788;9.772;2023-05-27T02:26:53;12.40;99.90
6206;DHT22;3136;48.788;9.772;2023-05-27T02:29:19;12.40;99.90
6206;DHT22;3136;48.788;9.772;2023-05-27T02:31:44;12.40;99.90
6206;DHT22;3136;48.788;9.772;2023-05-27T02:34:10;12.40;99.90
6206;DHT22;3136;48.788;9.772;2023-05-27T02:36:35;12.40;99.90
6206;DHT22;3136;48.788;9.772;2023-05-27T02:39:01;12.40;99.90
6206;DHT22;3136;48.788;9.772;2023-05-27T02:41:26;12.40;99.90
6206;DHT22;3136;48.788;9.772;2023-05-27T02:43:52;12.40;99.90
6206;DHT22;3136;48.788;9.772;2023-05-27T02:46:18;12.40;99.90
6206;DHT22;3136;48.788;9.772;2023-05-27T02:48:43;12.40;99.90
6206;DHT22;3136;48.788;9.772;2023-05-27T02:51:09;12.30;99.90
6206;DHT22;3136;48.788;9.772;2023-05-27T02:53:34;12.30;99.90
6206;DHT22;3136;48.788;9.772;2023-05-27T02:56:00;12.30;99.90
6206;DHT22;3136;48.788;9.772;2023-05-27T02:58:25;12.30;99.90
6206;DHT22;3136;48.788;9.772;2023-05-27T03:00:51;12.30;99.90
6206;DHT22;3136;48.788;9.772;2023-05-27T03:03:17;12.30;99.90
6206;DHT22;3136;48.788;9.772;2023-05-27T03:05:43;12.30;99.90
6206;DHT22;3136;48.788;9.772;2023-05-27T03:08:08;12.20;99.90
6206;DHT22;3136;48.788;9.772;2023-05-27T03:10:34;12.20;99.90
6206;DHT22;3136;48.788;9.772;2023-05-27T03:12:59;12.20;99.90
6206;DHT22;3136;48.788;9.772;2023-05-27T03:15:25;12.20;99.90
6206;DHT22;3136;48.788;9.772;2023-05-27T03:17:54;12.20;99.90
6206;DHT22;3136;48.788;9.772;2023-05-27T03:20:19;12.20;99.90
6206;DHT22;3136;48.788;9.772;2023-05-27T03:22:45;12.10;99.90
6206;DHT22;3136;48.788;9.772;2023-05-27T03:25:10;12.10;99.90
6206;DHT22;3136;48.788;9.772;2023-05-27T03:27:37;12.10;99.90
6206;DHT22;3136;48.788;9.772;2023-05-27T03:30:03;12.10;99.90
6206;DHT22;3136;48.788;9.772;2023-05-27T03:32:29;12.10;99.90
6206;DHT22;3136;48.788;9.772;2023-05-27T03:34:55;12.10;99.90
6206;DHT22;3136;48.788;9.772;2023-05-27T03:37:20;12.00;99.90
6206;DHT22;3136;48.788;9.772;2023-05-27T03:39:46;12.10;99.90
6206;DHT22;3136;48.788;9.772;2023-05-27T03:42:12;12.00;99.90
6206;DHT22;3136;48.788;9.772;2023-05-27T03:44:37;12.00;99.90
6206;DHT22;3136;48.788;9.772;2023-05-27T03:47:03;12.00;99.90
6206;DHT22;3136;48.788;9.772;2023-05-27T03:49:29;12.00;99.90
6206;DHT22;3136;48.788;9.772;2023-05-27T03:51:54;12.00;99.90
6206;DHT22;3136;48.788;9.772;2023-05-27T03:54:20;12.00;99.90
6206;DHT22;3136;48.788;9.772;2023-05-27T03:56:45;12.00;99.90
6206;DHT22;3136;48.788;9.772;2023-05-27T03:59:11;12.00;99.90
6206;DHT22;3136;48.788;9.772;2023-05-27T04:01:37;12.00;99.90
6206;DHT22;3136;48.788;9.772;2023-05-27T04:04:03;12.10;99.90
6206;DHT22;3136;48.788;9.772;2023-05-27T04:06:28;12.10;99.90
6206;DHT22;3136;48.788;9.772;2023-05-27T04:08:54;12.10;99.90
6206;DHT22;3136;48.788;9.772;2023-05-27T04:11:20;12.10;99.90
6206;DHT22;3136;48.788;9.772;2023-05-27T04:13:46;12.30;99.90
6206;DHT22;3136;48.788;9.772;2023-05-27T04:16:14;12.10;99.90
6206;DHT22;3136;48.788;9.772;2023-05-27T04:18:40;12.20;99.90
6206;DHT22;3136;48.788;9.772;2023-05-27T04:21:06;12.20;99.90
6206;DHT22;3136;48.788;9.772;2023-05-27T04:23:33;12.20;99.90
6206;DHT22;3136;48.788;9.772;2023-05-27T04:25:59;12.20;99.90
6206;DHT22;3136;48.788;9.772;2023-05-27T04:28:24;12.30;99.90
6206;DHT22;3136;48.788;9.772;2023-05-27T04:30:51;12.30;99.90
6206;DHT22;3136;48.788;9.772;2023-05-27T04:33:18;12.30;99.90
6206;DHT22;3136;48.788;9.772;2023-05-27T04:35:44;12.30;99.90
6206;DHT22;3136;48.788;9.772;2023-05-27T04:38:10;12.30;99.90
6206;DHT22;3136;48.788;9.772;2023-05-27T04:40:41;12.40;99.90
6206;DHT22;3136;48.788;9.772;2023-05-27T04:43:07;12.40;99.90
6206;DHT22;3136;48.788;9.772;2023-05-27T04:45:33;12.40;99.90
6206;DHT22;3136;48.788;9.772;2023-05-27T04:47:59;12.50;99.90
6206;DHT22;3136;48.788;9.772;2023-05-27T04:50:26;12.50;99.90
6206;DHT22;3136;48.788;9.772;2023-05-27T04:52:51;12.50;99.90
6206;DHT22;3136;48.788;9.772;2023-05-27T04:55:18;12.60;99.90
6206;DHT22;3136;48.788;9.772;2023-05-27T04:57:43;12.60;99.90
6206;DHT22;3136;48.788;9.772;2023-05-27T05:00:09;12.60;99.90
6206;DHT22;3136;48.788;9.772;2023-05-27T05:02:35;12.70;99.90
6206;DHT22;3136;48.788;9.772;2023-05-27T05:05:06;12.70;99.90
6206;DHT22;3136;48.788;9.772;2023-05-27T05:07:32;12.70;99.90
6206;DHT22;3136;48.788;9.772;2023-05-27T05:09:59;12.70;99.90
6206;DHT22;3136;48.788;9.772;2023-05-27T05:12:25;12.70;99.90
6206;DHT22;3136;48.788;9.772;2023-05-27T05:14:53;12.80;99.90
6206;DHT22;3136;48.788;9.772;2023-05-27T05:17:19;12.80;99.90
6206;DHT22;3136;48.788;9.772;2023-05-27T05:19:45;12.80;99.90
6206;DHT22;3136;48.788;9.772;2023-05-27T05:22:11;13.00;99.90
6206;DHT22;3136;48.788;9.772;2023-05-27T05:24:39;12.90;99.90
6206;DHT22;3136;48.788;9.772;2023-05-27T05:27:05;13.00;99.90
6206;DHT22;3136;48.788;9.772;2023-05-27T05:29:31;13.00;99.90
6206;DHT22;3136;48.788;9.772;2023-05-27T05:31:57;13.10;99.90
6206;DHT22;3136;48.788;9.772;2023-05-27T05:34:23;13.10;99.90
6206;DHT22;3136;48.788;9.772;2023-05-27T05:36:48;13.20;99.90
6206;DHT22;3136;48.788;9.772;2023-05-27T05:39:14;13.30;99.90
6206;DHT22;3136;48.788;9.772;2023-05-27T05:41:41;13.20;99.90
6206;DHT22;3136;48.788;9.772;2023-05-27T05:44:06;13.30;99.90
6206;DHT22;3136;48.788;9.772;2023-05-27T05:46:32;13.30;99.90
6206;DHT22;3136;48.788;9.772;2023-05-27T05:48:57;13.50;99.90
6206;DHT22;3136;48.788;9.772;2023-05-27T05:51:23;13.40;99.90
6206;DHT22;3136;48.788;9.772;2023-05-27T05:53:49;13.50;99.90
6206;DHT22;3136;48.788;9.772;2023-05-27T05:56:14;13.60;99.90
6206;DHT22;3136;48.788;9.772;2023-05-27T05:58:40;13.70;99.90
6206;DHT22;3136;48.788;9.772;2023-05-27T06:01:05;13.70;99.90
6206;DHT22;3136;48.788;9.772;2023-05-27T06:03:31;13.70;99.90
6206;DHT22;3136;48.788;9.772;2023-05-27T06:05:56;13.80;99.90
6206;DHT22;3136;48.788;9.772;2023-05-27T06:08:22;13.90;99.90
6206;DHT22;3136;48.788;9.772;2023-05-27T06:10:47;14.00;99.90
6206;DHT22;3136;48.788;9.772;2023-05-27T06:13:13;14.00;99.90
6206;DHT22;3136;48.788;9.772;2023-05-27T06:15:39;14.10;99.90
6206;DHT22;3136;48.788;9.772;2023-05-27T06:18:04;14.20;99.90
6206;DHT22;3136;48.788;9.772;2023-05-27T06:20:30;14.20;99.90
6206;DHT22;3136;48.788;9.772;2023-05-27T06:22:56;14.40;99.90
6206;DHT22;3136;48.788;9.772;2023-05-27T06:25:21;14.40;99.90
6206;DHT22;3136;48.788;9.772;2023-05-27T06:27:47;14.50;99.90
6206;DHT22;3136;48.788;9.772;2023-05-27T06:30:13;14.60;99.90
6206;DHT22;3136;48.788;9.772;2023-05-27T06:32:39;14.60;99.90
6206;DHT22;3136;48.788;9.772;2023-05-27T06:35:05;14.70;99.90
6206;DHT22;3136;48.788;9.772;2023-05-27T06:37:30;14.80;99.90
6206;DHT22;3136;48.788;9.772;2023-05-27T06:39:56;14.80;99.90
6206;DHT22;3136;48.788;9.772;2023-05-27T06:42:22;14.90;99.90
6206;DHT22;3136;48.788;9.772;2023-05-27T06:44:48;15.00;99.90
6206;DHT22;3136;48.788;9.772;2023-05-27T06:47:14;15.00;99.90
6206;DHT22;3136;48.788;9.772;2023-05-27T06:49:39;15.10;99.90
6206;DHT22;3136;48.788;9.772;2023-05-27T06:52:05;15.20;99.90
6206;DHT22;3136;48.788;9.772;2023-05-27T06:54:31;15.30;99.90
6206;DHT22;3136;48.788;9.772;2023-05-27T06:56:57;15.30;99.90
6206;DHT22;3136;48.788;9.772;2023-05-27T06:59:23;15.40;99.90
6206;DHT22;3136;48.788;9.772;2023-05-27T07:01:48;15.60;99.90
6206;DHT22;3136;48.788;9.772;2023-05-27T07:04:15;15.60;99.90
6206;DHT22;3136;48.788;9.772;2023-05-27T07:06:41;15.70;99.90
6206;DHT22;3136;48.788;9.772;2023-05-27T07:09:06;15.70;99.90
6206;DHT22;3136;48.788;9.772;2023-05-27T07:11:32;15.90;99.90
6206;DHT22;3136;48.788;9.772;2023-05-27T07:13:58;15.90;99.90
6206;DHT22;3136;48.788;9.772;2023-05-27T07:16:23;15.90;99.90
6206;DHT22;3136;48.788;9.772;2023-05-27T07:18:49;16.10;99.90
6206;DHT22;3136;48.788;9.772;2023-05-27T07:21:14;16.10;99.90
6206;DHT22;3136;48.788;9.772;2023-05-27T07:23:40;16.20;99.90
6206;DHT22;3136;48.788;9.772;2023-05-27T07:26:05;16.30;99.90
6206;DHT22;3136;48.788;9.772;2023-05-27T07:28:31;16.50;99.90
6206;DHT22;3136;48.788;9.772;2023-05-27T07:30:57;16.90;99.90
6206;DHT22;3136;48.788;9.772;2023-05-27T07:33:23;16.50;99.90
6206;DHT22;3136;48.788;9.772;2023-05-27T07:35:49;16.60;99.90
6206;DHT22;3136;48.788;9.772;2023-05-27T07:38:14;16.70;99.90
6206;DHT22;3136;48.788;9.772;2023-05-27T07:40:40;16.70;99.90
6206;DHT22;3136;48.788;9.772;2023-05-27T07:43:05;16.90;99.90
6206;DHT22;3136;48.788;9.772;2023-05-27T07:45:31;17.00;99.90
6206;DHT22;3136;48.788;9.772;2023-05-27T07:47:57;16.30;99.60
6206;DHT22;3136;48.788;9.772;2023-05-27T07:50:23;17.00;99.90
6206;DHT22;3136;48.788;9.772;2023-05-27T07:52:49;17.10;99.90
6206;DHT22;3136;48.788;9.772;2023-05-27T07:55:14;17.20;99.90
6206;DHT22;3136;48.788;9.772;2023-05-27T07:57:40;17.30;99.90
6206;DHT22;3136;48.788;9.772;2023-05-27T08:00:07;17.30;99.90
6206;DHT22;3136;48.788;9.772;2023-05-27T08:02:33;17.40;99.90
6206;DHT22;3136;48.788;9.772;2023-05-27T08:04:58;17.60;99.90
6206;DHT22;3136;48.788;9.772;2023-05-27T08:07:24;17.60;99.90
6206;DHT22;3136;48.788;9.772;2023-05-27T08:09:50;17.60;97.30
6206;DHT22;3136;48.788;9.772;2023-05-27T08:12:16;17.70;97.00
6206;DHT22;3136;48.788;9.772;2023-05-27T08:14:42;17.60;97.60
6206;DHT22;3136;48.788;9.772;2023-05-27T08:17:08;17.80;99.60
6206;DHT22;3136;48.788;9.772;2023-05-27T08:19:33;18.00;98.00
6206;DHT22;3136;48.788;9.772;2023-05-27T08:21:59;17.90;97.20
6206;DHT22;3136;48.788;9.772;2023-05-27T08:24:24;18.10;97.80
6206;DHT22;3136;48.788;9.772;2023-05-27T08:26:50;18.20;96.20
6206;DHT22;3136;48.788;9.772;2023-05-27T08:29:16;18.30;96.50
6206;DHT22;3136;48.788;9.772;2023-05-27T08:31:41;18.20;97.50
6206;DHT22;3136;48.788;9.772;2023-05-27T08:34:07;18.60;97.70
6206;DHT22;3136;48.788;9.772;2023-05-27T08:36:32;18.60;95.10
6206;DHT22;3136;48.788;9.772;2023-05-27T08:38:59;18.60;96.20
6206;DHT22;3136;48.788;9.772;2023-05-27T08:41:26;18.70;95.80
6206;DHT22;3136;48.788;9.772;2023-05-27T08:43:53;18.80;95.00
6206;DHT22;3136;48.788;9.772;2023-05-27T08:46:18;18.70;95.40
6206;DHT22;3136;48.788;9.772;2023-05-27T08:48:45;18.90;95.50
6206;DHT22;3136;48.788;9.772;2023-05-27T08:51:13;19.10;94.10
6206;DHT22;3136;48.788;9.772;2023-05-27T08:53:39;19.00;94.40
6206;DHT22;3136;48.788;9.772;2023-05-27T08:56:05;19.20;94.10
6206;DHT22;3136;48.788;9.772;2023-05-27T08:58:34;19.20;95.40
6206;DHT22;3136;48.788;9.772;2023-05-27T09:01:00;19.20;94.60
6206;DHT22;3136;48.788;9.772;2023-05-27T09:03:27;19.40;93.70
6206;DHT22;3136;48.788;9.772;2023-05-27T09:05:54;19.50;94.70
6206;DHT22;3136;48.788;9.772;2023-05-27T09:08:20;19.60;92.90
6206;DHT22;3136;48.788;9.772;2023-05-27T09:10:46;20.00;93.60
6206;DHT22;3136;48.788;9.772;2023-05-27T09:13:11;19.90;92.90
6206;DHT22;3136;48.788;9.772;2023-05-27T09:15:37;19.80;93.20
6206;DHT22;3136;48.788;9.772;2023-05-27T09:18:05;19.70;92.20
6206;DHT22;3136;48.788;9.772;2023-05-27T09:20:30;19.70;91.20
6206;DHT22;3136;48.788;9.772;2023-05-27T09:23:01;19.80;92.10
6206;DHT22;3136;48.788;9.772;2023-05-27T09:25:27;19.90;91.30
6206;DHT22;3136;48.788;9.772;2023-05-27T09:27:54;20.10;92.50
6206;DHT22;3136;48.788;9.772;2023-05-27T09:30:20;20.20;92.60
6206;DHT22;3136;48.788;9.772;2023-05-27T09:32:47;20.30;90.70
6206;DHT22;3136;48.788;9.772;2023-05-27T09:35:14;20.80;91.40
6206;DHT22;3136;48.788;9.772;2023-05-27T09:37:40;20.60;90.50
6206;DHT22;3136;48.788;9.772;2023-05-27T09:40:12;21.10;91.30
6206;DHT22;3136;48.788;9.772;2023-05-27T09:42:43;20.80;90.30
6206;DHT22;3136;48.788;9.772;2023-05-27T09:45:18;20.80;88.40
6206;DHT22;3136;48.788;9.772;2023-05-27T09:47:48;20.90;88.00
6206;DHT22;3136;48.788;9.772;2023-05-27T09:50:15;21.00;90.20
6206;DHT22;3136;48.788;9.772;2023-05-27T09:52:43;21.20;88.40
6206;DHT22;3136;48.788;9.772;2023-05-27T09:55:10;21.40;88.40
6206;DHT22;3136;48.788;9.772;2023-05-27T09:57:41;21.50;86.80
6206;DHT22;3136;48.788;9.772;2023-05-27T10:00:08;21.60;86.30
6206;DHT22;3136;48.788;9.772;2023-05-27T10:02:38;21.60;85.10
6206;DHT22;3136;48.788;9.772;2023-05-27T10:05:06;21.80;86.20
6206;DHT22;3136;48.788;9.772;2023-05-27T10:07:39;21.80;86.50
6206;DHT22;3136;48.788;9.772;2023-05-27T10:10:07;22.00;84.30
6206;DHT22;3136;48.788;9.772;2023-05-27T10:12:34;22.00;84.80
6206;DHT22;3136;48.788;9.772;2023-05-27T10:15:00;22.10;85.30
6206;DHT22;3136;48.788;9.772;2023-05-27T10:17:26;22.20;83.30
6206;DHT22;3136;48.788;9.772;2023-05-27T10:19:58;22.30;81.10
6206;DHT22;3136;48.788;9.772;2023-05-27T10:22:24;22.40;81.50
6206;DHT22;3136;48.788;9.772;2023-05-27T10:24:49;22.40;81.80
6206;DHT22;3136;48.788;9.772;2023-05-27T10:27:15;22.50;79.30
6206;DHT22;3136;48.788;9.772;2023-05-27T10:29:42;22.60;79.80
6206;DHT22;3136;48.788;9.772;2023-05-27T10:32:08;22.70;80.50
6206;DHT22;3136;48.788;9.772;2023-05-27T10:34:37;22.80;79.00
6206;DHT22;3136;48.788;9.772;2023-05-27T10:37:03;22.90;81.20
6206;DHT22;3136;48.788;9.772;2023-05-27T10:39:29;23.20;80.00
6206;DHT22;3136;48.788;9.772;2023-05-27T10:41:56;23.70;77.70
6206;DHT22;3136;48.788;9.772;2023-05-27T10:44:38;24.50;78.20
6206;DHT22;3136;48.788;9.772;2023-05-27T10:47:11;25.30;75.70
6206;DHT22;3136;48.788;9.772;2023-05-27T10:49:39;25.90;74.60
6206;DHT22;3136;48.788;9.772;2023-05-27T10:54:36;26.90;67.70
6206;DHT22;3136;48.788;9.772;2023-05-27T10:57:03;26.90;68.00
6206;DHT22;3136;48.788;9.772;2023-05-27T10:59:40;26.80;66.70
6206;DHT22;3136;48.788;9.772;2023-05-27T11:02:11;26.30;64.90
6206;DHT22;3136;48.788;9.772;2023-05-27T11:04:37;26.30;67.90
6206;DHT22;3136;48.788;9.772;2023-05-27T11:07:04;26.40;65.50
6206;DHT22;3136;48.788;9.772;2023-05-27T11:09:30;26.40;63.20
6206;DHT22;3136;48.788;9.772;2023-05-27T11:11:56;26.30;66.10
6206;DHT22;3136;48.788;9.772;2023-05-27T11:14:23;26.50;64.00
6206;DHT22;3136;48.788;9.772;2023-05-27T11:16:49;26.40;63.60
6206;DHT22;3136;48.788;9.772;2023-05-27T11:19:19;26.60;62.60
6206;DHT22;3136;48.788;9.772;2023-05-27T11:21:46;26.60;61.70
6206;DHT22;3136;48.788;9.772;2023-05-27T11:24:16;27.70;65.00
6206;DHT22;3136;48.788;9.772;2023-05-27T11:26:46;26.80;62.20
6206;DHT22;3136;48.788;9.772;2023-05-27T11:29:13;27.20;60.60
6206;DHT22;3136;48.788;9.772;2023-05-27T11:31:39;27.70;62.20
6206;DHT22;3136;48.788;9.772;2023-05-27T11:34:15;28.40;60.10
6206;DHT22;3136;48.788;9.772;2023-05-27T11:36:44;28.90;60.50
6206;DHT22;3136;48.788;9.772;2023-05-27T11:39:14;29.20;59.10
6206;DHT22;3136;48.788;9.772;2023-05-27T11:42:08;29.40;57.90
6206;DHT22;3136;48.788;9.772;2023-05-27T11:44:33;29.60;58.90
6206;DHT22;3136;48.788;9.772;2023-05-27T11:47:00;29.90;58.00
6206;DHT22;3136;48.788;9.772;2023-05-27T11:49:26;29.90;57.30
6206;DHT22;3136;48.788;9.772;2023-05-27T11:51:55;29.70;57.40
6206;DHT22;3136;48.788;9.772;2023-05-27T11:54:24;29.70;57.80
6206;DHT22;3136;48.788;9.772;2023-05-27T11:56:51;29.70;55.50
6206;DHT22;3136;48.788;9.772;2023-05-27T11:59:18;29.80;56.50
6206;DHT22;3136;48.788;9.772;2023-05-27T12:01:44;29.80;55.70
6206;DHT22;3136;48.788;9.772;2023-05-27T12:04:10;30.10;56.20
6206;DHT22;3136;48.788;9.772;2023-05-27T12:06:36;30.50;55.80
6206;DHT22;3136;48.788;9.772;2023-05-27T12:09:09;30.90;55.10
6206;DHT22;3136;48.788;9.772;2023-05-27T12:11:36;31.20;55.40
6206;DHT22;3136;48.788;9.772;2023-05-27T12:14:02;31.50;55.60
6206;DHT22;3136;48.788;9.772;2023-05-27T12:16:28;31.30;53.80
6206;DHT22;3136;48.788;9.772;2023-05-27T12:18:53;31.00;52.90
6206;DHT22;3136;48.788;9.772;2023-05-27T12:21:19;31.20;53.70
6206;DHT22;3136;48.788;9.772;2023-05-27T12:23:46;31.60;52.70
6206;DHT22;3136;48.788;9.772;2023-05-27T12:26:13;32.00;52.20
6206;DHT22;3136;48.788;9.772;2023-05-27T12:28:39;32.20;52.80
6206;DHT22;3136;48.788;9.772;2023-05-27T12:31:04;32.40;51.90
6206;DHT22;3136;48.788;9.772;2023-05-27T12:33:30;32.30;50.20
6206;DHT22;3136;48.788;9.772;2023-05-27T12:35:57;32.30;50.70
6206;DHT22;3136;48.788;9.772;2023-05-27T12:38:22;32.40;51.00
6206;DHT22;3136;48.788;9.772;2023-05-27T12:40:48;32.70;51.80
6206;DHT22;3136;48.788;9.772;2023-05-27T12:43:14;32.60;49.40
6206;DHT22;3136;48.788;9.772;2023-05-27T12:45:40;33.00;49.80
6206;DHT22;3136;48.788;9.772;2023-05-27T12:48:06;33.10;49.80
6206;DHT22;3136;48.788;9.772;2023-05-27T12:50:32;33.10;48.70
6206;DHT22;3136;48.788;9.772;2023-05-27T12:52:57;32.80;46.70
6206;DHT22;3136;48.788;9.772;2023-05-27T12:55:25;32.60;45.90
6206;DHT22;3136;48.788;9.772;2023-05-27T12:57:52;32.30;45.50
6206;DHT22;3136;48.788;9.772;2023-05-27T13:00:18;32.20;44.40
6206;DHT22;3136;48.788;9.772;2023-05-27T13:02:45;32.00;45.70
6206;DHT22;3136;48.788;9.772;2023-05-27T13:05:12;32.20;45.30
6206;DHT22;3136;48.788;9.772;2023-05-27T13:07:38;32.30;44.80
6206;DHT22;3136;48.788;9.772;2023-05-27T13:10:11;32.30;43.50
6206;DHT22;3136;48.788;9.772;2023-05-27T13:12:38;31.80;41.90
6206;DHT22;3136;48.788;9.772;2023-05-27T13:15:04;32.10;42.90
6206;DHT22;3136;48.788;9.772;2023-05-27T13:17:31;32.20;42.50
6206;DHT22;3136;48.788;9.772;2023-05-27T13:19:57;32.30;43.10
6206;DHT22;3136;48.788;9.772;2023-05-27T13:22:23;32.30;42.70
6206;DHT22;3136;48.788;9.772;2023-05-27T13:24:48;32.00;41.80
6206;DHT22;3136;48.788;9.772;2023-05-27T13:27:14;32.20;42.20
6206;DHT22;3136;48.788;9.772;2023-05-27T13:29:40;32.00;40.60
6206;DHT22;3136;48.788;9.772;2023-05-27T13:32:07;32.00;41.20
6206;DHT22;3136;48.788;9.772;2023-05-27T13:34:33;31.90;41.30
6206;DHT22;3136;48.788;9.772;2023-05-27T13:36:58;32.20;41.10
6206;DHT22;3136;48.788;9.772;2023-05-27T13:39:24;32.10;39.80
6206;DHT22;3136;48.788;9.772;2023-05-27T13:41:49;32.20;40.00
6206;DHT22;3136;48.788;9.772;2023-05-27T13:44:15;31.80;39.80
6206;DHT22;3136;48.788;9.772;2023-05-27T13:46:41;31.60;38.40
6206;DHT22;3136;48.788;9.772;2023-05-27T13:49:06;31.70;38.80
6206;DHT22;3136;48.788;9.772;2023-05-27T13:51:32;31.70;59.30
6206;DHT22;3136;48.788;9.772;2023-05-27T13:53:58;31.00;37.40
6206;DHT22;3136;48.788;9.772;2023-05-27T13:56:24;30.70;37.30
6206;DHT22;3136;48.788;9.772;2023-05-27T13:58:51;30.40;36.10
6206;DHT22;3136;48.788;9.772;2023-05-27T14:01:18;29.50;34.30
6206;DHT22;3136;48.788;9.772;2023-05-27T14:03:44;28.70;34.80
6206;DHT22;3136;48.788;9.772;2023-05-27T14:06:09;28.00;33.80
6206;DHT22;3136;48.788;9.772;2023-05-27T14:08:35;27.30;35.40
6206;DHT22;3136;48.788;9.772;2023-05-27T14:11:02;26.80;35.80
6206;DHT22;3136;48.788;9.772;2023-05-27T14:13:27;26.50;35.50
6206;DHT22;3136;48.788;9.772;2023-05-27T14:15:53;26.10;37.50
6206;DHT22;3136;48.788;9.772;2023-05-27T14:18:19;25.90;35.60
6206;DHT22;3136;48.788;9.772;2023-05-27T14:20:45;25.70;36.10
6206;DHT22;3136;48.788;9.772;2023-05-27T14:23:11;25.30;37.10
6206;DHT22;3136;48.788;9.772;2023-05-27T14:25:38;25.10;36.50
6206;DHT22;3136;48.788;9.772;2023-05-27T14:28:03;24.80;35.90
6206;DHT22;3136;48.788;9.772;2023-05-27T14:30:34;24.60;36.70
6206;DHT22;3136;48.788;9.772;2023-05-27T14:33:06;24.60;38.20
6206;DHT22;3136;48.788;9.772;2023-05-27T14:35:36;24.50;38.30
6206;DHT22;3136;48.788;9.772;2023-05-27T14:38:02;24.60;37.70
6206;DHT22;3136;48.788;9.772;2023-05-27T14:40:28;24.60;38.10
6206;DHT22;3136;48.788;9.772;2023-05-27T14:42:54;24.60;37.00
6206;DHT22;3136;48.788;9.772;2023-05-27T14:45:20;24.50;37.60
6206;DHT22;3136;48.788;9.772;2023-05-27T14:47:50;24.70;39.90
6206;DHT22;3136;48.788;9.772;2023-05-27T14:50:20;24.70;38.40
6206;DHT22;3136;48.788;9.772;2023-05-27T14:52:45;24.70;38.70
6206;DHT22;3136;48.788;9.772;2023-05-27T14:55:11;24.70;39.10
6206;DHT22;3136;48.788;9.772;2023-05-27T14:57:36;24.70;37.60
6206;DHT22;3136;48.788;9.772;2023-05-27T15:00:03;24.70;38.90
6206;DHT22;3136;48.788;9.772;2023-05-27T15:02:31;24.60;38.90
6206;DHT22;3136;48.788;9.772;2023-05-27T15:04:57;24.40;39.10
6206;DHT22;3136;48.788;9.772;2023-05-27T15:07:22;24.40;37.70
6206;DHT22;3136;48.788;9.772;2023-05-27T15:09:48;24.20;38.00
6206;DHT22;3136;48.788;9.772;2023-05-27T15:12:14;24.20;39.10
6206;DHT22;3136;48.788;9.772;2023-05-27T15:14:40;24.20;39.90
6206;DHT22;3136;48.788;9.772;2023-05-27T15:17:05;24.00;40.00
6206;DHT22;3136;48.788;9.772;2023-05-27T15:19:38;23.90;38.90
6206;DHT22;3136;48.788;9.772;2023-05-27T15:22:05;23.80;38.90
6206;DHT22;3136;48.788;9.772;2023-05-27T15:24:32;23.80;37.90
6206;DHT22;3136;48.788;9.772;2023-05-27T15:26:58;23.70;39.30
6206;DHT22;3136;48.788;9.772;2023-05-27T15:29:23;23.60;38.90
6206;DHT22;3136;48.788;9.772;2023-05-27T15:31:50;23.60;40.50
6206;DHT22;3136;48.788;9.772;2023-05-27T15:34:15;23.50;38.70
6206;DHT22;3136;48.788;9.772;2023-05-27T15:36:41;23.50;39.20
6206;DHT22;3136;48.788;9.772;2023-05-27T15:39:07;23.50;40.70
6206;DHT22;3136;48.788;9.772;2023-05-27T15:41:32;23.50;40.20
6206;DHT22;3136;48.788;9.772;2023-05-27T15:43:58;23.60;40.70
6206;DHT22;3136;48.788;9.772;2023-05-27T15:46:24;23.50;41.30
6206;DHT22;3136;48.788;9.772;2023-05-27T15:48:51;23.40;40.90
6206;DHT22;3136;48.788;9.772;2023-05-27T15:51:17;23.50;41.10
6206;DHT22;3136;48.788;9.772;2023-05-27T15:53:42;23.50;40.50
6206;DHT22;3136;48.788;9.772;2023-05-27T15:56:08;23.50;40.20
6206;DHT22;3136;48.788;9.772;2023-05-27T15:58:33;23.40;38.90
6206;DHT22;3136;48.788;9.772;2023-05-27T16:00:59;23.40;40.90
6206;DHT22;3136;48.788;9.772;2023-05-27T16:03:24;23.40;40.90